Terminal Aerodrome Forecast
Issued by NWS

Home | Current Version | Previous Version | Text Only | Print | Product List | Glossary On
Versions: 1 2 3 4 5 6 7 8 9 10 11 12 13 14 15 16 17 18 19 20 21 22 23 24 25 26 27 28 29 30 31 32 33 34
000
FTUS45 KSLC 182335
TAFEVW
TAF
KEVW 182335Z 1900/1924 28014G21KT P6SM SCT060 SCT120
     FM190100 26010KT P6SM FEW070 SCT150
     FM190400 22007KT P6SM SCT200
     FM191600 23012G19KT P6SM FEW080 SCT200
     FM191800 26021G32KT P6SM FEW080 SCT200=

USA.gov is the U.S. government's official web portal to all federal, state and local government web resources and services.